createdAt,value
2023-02-05T00:00:31.125Z,100397.00
2023-02-05T00:03:28.031Z,100394.00
2023-02-05T00:06:04.643Z,100402.80
2023-02-05T00:08:41.132Z,100400.80
2023-02-05T00:11:17.434Z,100396.40
2023-02-05T00:13:53.747Z,100400.80
2023-02-05T00:16:31.067Z,100400.40
2023-02-05T00:19:07.414Z,100404.00
2023-02-05T00:21:44.497Z,100408.40
2023-02-05T00:24:20.863Z,100407.20
2023-02-05T00:26:57.269Z,100406.00
2023-02-05T00:29:33.687Z,100414.20
2023-02-05T00:32:10.575Z,100414.60
2023-02-05T00:34:46.940Z,100424.60
2023-02-05T00:37:23.448Z,100427.20
2023-02-05T00:39:59.758Z,100423.60
2023-02-05T00:42:37.237Z,100428.60
2023-02-05T00:45:15.276Z,100427.00
2023-02-05T00:47:51.635Z,100424.80
2023-02-05T00:50:28.345Z,100425.40
2023-02-05T00:53:05.089Z,100427.40
2023-02-05T00:55:41.348Z,100419.60
2023-02-05T00:58:18.519Z,100426.80
2023-02-05T01:00:58.529Z,100422.00
2023-02-05T01:03:35.034Z,100427.60
2023-02-05T01:06:12.029Z,100432.40
2023-02-05T01:08:48.503Z,100440.40
2023-02-05T01:11:24.970Z,100440.00
2023-02-05T01:14:01.444Z,100438.20
2023-02-05T01:16:37.671Z,100435.00
2023-02-05T01:19:14.071Z,100432.80
2023-02-05T01:21:50.393Z,100438.00
2023-02-05T01:24:26.783Z,100433.40
2023-02-05T01:27:03.068Z,100431.60
2023-02-05T01:29:39.474Z,100431.20
2023-02-05T01:32:15.764Z,100430.00
2023-02-05T01:34:52.573Z,100428.40
2023-02-05T01:37:28.948Z,100428.60
2023-02-05T01:40:08.170Z,100426.60
2023-02-05T01:42:44.618Z,100433.40
2023-02-05T01:46:06.793Z,100432.20
2023-02-05T01:48:52.038Z,100430.40
2023-02-05T01:51:30.779Z,100434.80
2023-02-05T01:54:08.981Z,100431.40
2023-02-05T01:56:51.421Z,100436.00
2023-02-05T01:59:33.471Z,100431.20
2023-02-05T02:02:10.237Z,100428.00
2023-02-05T02:04:53.508Z,100427.60
2023-02-05T02:07:30.221Z,100431.60
2023-02-05T02:10:08.553Z,100428.60
2023-02-05T02:12:49.148Z,100428.20
2023-02-05T02:15:30.318Z,100428.20
2023-02-05T02:18:28.528Z,100428.80
2023-02-05T02:21:46.904Z,100436.40
2023-02-05T02:25:00.958Z,100438.60
2023-02-05T02:27:55.330Z,100438.60
2023-02-05T02:30:42.020Z,100440.80
2023-02-05T02:33:29.056Z,100446.00
2023-02-05T02:36:15.192Z,100436.40
2023-02-05T02:39:03.693Z,100439.40
2023-02-05T02:41:52.919Z,100444.80
2023-02-05T02:44:34.987Z,100443.20
2023-02-05T02:47:19.893Z,100444.40
2023-02-05T02:50:02.066Z,100449.00
2023-02-05T02:52:47.374Z,100450.20
2023-02-05T02:55:26.418Z,100455.20
2023-02-05T02:58:06.511Z,100457.80
2023-02-05T03:00:47.247Z,100456.20
2023-02-05T03:03:29.168Z,100461.60
2023-02-05T03:06:08.351Z,100465.80
2023-02-05T03:08:55.976Z,100466.80
2023-02-05T03:11:32.444Z,100468.60
2023-02-05T03:14:09.112Z,100462.60
2023-02-05T03:16:47.037Z,100465.40
2023-02-05T03:19:23.682Z,100463.40
2023-02-05T03:22:07.482Z,100463.40
2023-02-05T03:24:44.322Z,100469.00
2023-02-05T03:27:21.008Z,100466.60
2023-02-05T03:29:58.336Z,100464.00
2023-02-05T03:32:59.390Z,100465.60
2023-02-05T03:35:45.962Z,100468.60
2023-02-05T03:49:21.445Z,100476.40
2023-02-05T03:52:08.576Z,100474.40
2023-02-05T03:54:55.247Z,100471.80
2023-02-05T03:57:41.632Z,100477.80
2023-02-05T04:00:20.545Z,100477.40
2023-02-05T04:02:57.651Z,100474.20
2023-02-05T04:05:37.543Z,100474.00
2023-02-05T04:08:14.218Z,100468.80
2023-02-05T04:10:54.128Z,100466.00
2023-02-05T04:13:30.638Z,100465.40
2023-02-05T04:16:08.285Z,100457.80
2023-02-05T04:18:44.701Z,100454.60
2023-02-05T04:21:21.322Z,100454.60
2023-02-05T04:23:57.911Z,100456.20
2023-02-05T04:26:34.580Z,100457.20
2023-02-05T04:29:13.227Z,100457.40
2023-02-05T04:31:53.359Z,100465.20
2023-02-05T04:34:30.153Z,100462.00
2023-02-05T04:37:07.969Z,100459.40
2023-02-05T04:39:44.437Z,100458.80
2023-02-05T04:42:20.906Z,100463.20
2023-02-05T04:44:57.292Z,100465.80
2023-02-05T04:47:34.961Z,100466.40
2023-02-05T04:50:13.047Z,100464.00
2023-02-05T04:52:49.340Z,100466.60
2023-02-05T04:55:26.135Z,100474.40
2023-02-05T04:58:03.098Z,100477.00
2023-02-05T05:00:39.452Z,100480.60
2023-02-05T05:03:15.676Z,100479.00
2023-02-05T05:05:52.291Z,100478.00
2023-02-05T05:08:29.882Z,100480.60
2023-02-05T05:11:11.638Z,100479.60
2023-02-05T05:13:47.190Z,100478.20
2023-02-05T05:16:23.706Z,100478.80
2023-02-05T05:19:00.045Z,100479.80
2023-02-05T05:21:36.321Z,100484.20
2023-02-05T05:24:13.177Z,100488.40
2023-02-05T05:26:49.427Z,100492.20
2023-02-05T05:29:25.762Z,100487.20
2023-02-05T05:32:02.167Z,100489.60
2023-02-05T05:34:38.614Z,100498.40
2023-02-05T05:37:14.822Z,100496.80
2023-02-05T05:40:08.989Z,100503.60
2023-02-05T05:43:03.111Z,100510.00
2023-02-05T05:45:39.339Z,100517.80
2023-02-05T05:48:15.495Z,100525.20
2023-02-05T05:50:51.732Z,100527.00
2023-02-05T05:53:28.003Z,100534.80
2023-02-05T05:56:04.794Z,100539.60
2023-02-05T05:58:41.150Z,100537.20
2023-02-05T06:01:22.126Z,100538.80
2023-02-05T06:03:58.589Z,100541.20
2023-02-05T06:06:35.173Z,100547.20
2023-02-05T06:09:11.352Z,100558.80
2023-02-05T06:11:47.569Z,100560.40
2023-02-05T06:14:24.579Z,100563.20
2023-02-05T06:17:01.028Z,100567.40
2023-02-05T06:19:37.730Z,100574.80
2023-02-05T06:22:13.920Z,100576.20
2023-02-05T06:24:50.080Z,100582.00
2023-02-05T06:27:26.841Z,100592.20
2023-02-05T06:30:03.262Z,100589.20
2023-02-05T06:32:39.635Z,100586.00
2023-02-05T06:35:16.317Z,100593.60
2023-02-05T06:37:52.676Z,100596.20
2023-02-05T06:40:29.237Z,100594.00
2023-02-05T06:43:05.525Z,100592.00
2023-02-05T06:45:41.822Z,100597.20
2023-02-05T06:48:18.766Z,100602.00
2023-02-05T06:50:55.123Z,100603.20
2023-02-05T06:53:31.553Z,100607.00
2023-02-05T06:56:09.411Z,100606.80
2023-02-05T06:58:45.960Z,100606.20
2023-02-05T07:01:22.374Z,100607.00
2023-02-05T07:03:58.735Z,100611.40
2023-02-05T07:06:35.012Z,100617.80
2023-02-05T07:09:11.423Z,100618.60
2023-02-05T07:11:47.857Z,100617.00
2023-02-05T07:14:24.159Z,100622.40
2023-02-05T07:17:00.423Z,100619.20
2023-02-05T07:19:37.301Z,100622.40
2023-02-05T07:22:16.097Z,100631.80
2023-02-05T07:24:52.503Z,100633.40
2023-02-05T07:27:28.826Z,100640.00
2023-02-05T07:30:06.003Z,100643.00
2023-02-05T07:32:42.508Z,100649.40
2023-02-05T07:35:19.170Z,100654.00
2023-02-05T07:37:56.500Z,100659.00
2023-02-05T07:40:33.214Z,100663.60
2023-02-05T07:43:09.427Z,100664.80
2023-02-05T07:45:45.677Z,100668.00
2023-02-05T07:48:22.060Z,100676.20
2023-02-05T07:50:58.495Z,100672.40
2023-02-05T07:53:35.173Z,100676.80
2023-02-05T07:56:12.616Z,100685.00
2023-02-05T07:58:49.189Z,100688.40
2023-02-05T08:01:25.663Z,100683.80
2023-02-05T08:04:02.246Z,100688.40
2023-02-05T08:06:39.453Z,100696.60
2023-02-05T08:09:16.915Z,100693.60
2023-02-05T08:11:53.327Z,100694.80
2023-02-05T08:14:31.352Z,100695.00
2023-02-05T08:17:08.921Z,100691.60
2023-02-05T08:19:45.200Z,100686.60
2023-02-05T08:22:21.466Z,100686.40
2023-02-05T08:24:57.737Z,100691.00
2023-02-05T08:27:37.024Z,100691.60
2023-02-05T08:30:21.669Z,100689.40
2023-02-05T08:32:58.160Z,100685.20
2023-02-05T08:35:34.935Z,100686.00
2023-02-05T08:38:11.715Z,100683.80
2023-02-05T08:40:48.093Z,100688.40
2023-02-05T08:43:25.052Z,100689.80
2023-02-05T08:46:01.466Z,100686.20
2023-02-05T08:48:38.402Z,100688.00
2023-02-05T08:51:16.494Z,100687.80
2023-02-05T08:53:54.033Z,100692.00
2023-02-05T08:56:30.379Z,100697.60
2023-02-05T08:59:06.732Z,100699.00
2023-02-05T09:01:43.585Z,100704.80
2023-02-05T09:04:23.584Z,100704.20
2023-02-05T09:06:59.893Z,100700.60
2023-02-05T09:09:38.539Z,100709.60
2023-02-05T09:12:15.112Z,100712.60
2023-02-05T09:14:51.447Z,100714.20
2023-02-05T09:17:27.955Z,100717.60
2023-02-05T09:20:04.563Z,100717.80
2023-02-05T09:22:40.886Z,100717.60
2023-02-05T09:25:17.602Z,100724.00
2023-02-05T09:27:54.031Z,100731.00
2023-02-05T09:30:30.580Z,100728.00
2023-02-05T09:33:07.045Z,100729.60
2023-02-05T09:35:45.676Z,100724.80
2023-02-05T09:41:37.207Z,100725.60
2023-02-05T10:04:33.255Z,100736.20
2023-02-05T10:07:35.508Z,100731.40
2023-02-05T10:10:27.729Z,100733.00
2023-02-05T10:13:32.585Z,100733.40
2023-02-05T10:16:54.803Z,100729.20
2023-02-05T10:20:05.497Z,100722.80
2023-02-05T10:23:01.790Z,100732.20
2023-02-05T10:25:56.496Z,100734.40
2023-02-05T10:29:18.251Z,100736.20
2023-02-05T10:32:16.440Z,100728.00
2023-02-05T10:35:04.648Z,100730.20
2023-02-05T10:37:53.106Z,100726.00
2023-02-05T10:40:32.958Z,100721.20
2023-02-05T10:43:26.646Z,100718.40
2023-02-05T10:46:06.538Z,100718.20
2023-02-05T10:48:51.604Z,100717.00
2023-02-05T10:51:36.745Z,100714.80
2023-02-05T10:54:26.397Z,100711.20
2023-02-05T10:57:03.624Z,100711.00
2023-02-05T10:59:52.941Z,100713.20
2023-02-05T11:02:45.213Z,100721.00
2023-02-05T11:05:32.123Z,100719.00
2023-02-05T11:08:39.496Z,100716.40
2023-02-05T11:11:28.156Z,100715.60
2023-02-05T11:14:09.317Z,100713.60
2023-02-05T11:16:49.006Z,100717.00
2023-02-05T11:19:29.725Z,100716.80
2023-02-05T11:22:08.590Z,100717.40
2023-02-05T11:24:45.425Z,100710.80
2023-02-05T11:27:38.536Z,100709.80
2023-02-05T11:30:56.018Z,100713.40
2023-02-05T11:33:35.780Z,100716.00
2023-02-05T11:36:22.453Z,100715.60
2023-02-05T11:39:01.486Z,100719.60
2023-02-05T11:41:49.468Z,100709.40
2023-02-05T11:44:32.809Z,100711.60
2023-02-05T11:47:10.174Z,100703.40
2023-02-05T11:50:35.721Z,100706.80
2023-02-05T11:53:23.921Z,100700.60
2023-02-05T11:56:09.402Z,100699.20
2023-02-05T11:58:58.650Z,100697.00
2023-02-05T12:01:37.523Z,100698.40
2023-02-05T12:04:25.452Z,100700.60
2023-02-05T12:07:13.147Z,100693.60
2023-02-05T12:09:49.699Z,100690.80
2023-02-05T12:12:39.358Z,100688.60
2023-02-05T12:15:26.260Z,100689.60
2023-02-05T12:18:24.177Z,100687.40
2023-02-05T12:21:19.839Z,100690.00
2023-02-05T12:24:47.593Z,100697.20
2023-02-05T12:28:05.554Z,100694.40
2023-02-05T12:31:08.771Z,100694.20
2023-02-05T12:34:24.722Z,100698.00
2023-02-05T12:37:29.776Z,100691.20
2023-02-05T12:40:26.144Z,100696.20
2023-02-05T12:43:20.146Z,100700.00
2023-02-05T12:46:14.543Z,100697.40
2023-02-05T12:49:17.919Z,100692.80
2023-02-05T12:52:15.513Z,100690.80
2023-02-05T12:55:16.689Z,100688.80
2023-02-05T12:57:58.704Z,100694.80
2023-02-05T13:00:44.470Z,100696.00
2023-02-05T13:03:32.841Z,100694.60
2023-02-05T13:06:17.659Z,100694.80
2023-02-05T13:09:02.530Z,100691.00
2023-02-05T13:11:48.838Z,100691.20
2023-02-05T13:14:32.959Z,100687.00
2023-02-05T13:17:17.108Z,100684.60
2023-02-05T13:19:59.859Z,100684.80
2023-02-05T13:23:00.165Z,100687.20
2023-02-05T13:26:01.055Z,100687.00
2023-02-05T13:28:47.699Z,100686.80
2023-02-05T13:31:38.739Z,100689.60
2023-02-05T13:34:19.957Z,100683.60
2023-02-05T13:37:41.993Z,100684.80
2023-02-05T13:41:05.682Z,100686.80
2023-02-05T13:44:32.912Z,100685.20
2023-02-05T13:47:59.517Z,100688.60
2023-02-05T13:51:12.077Z,100683.80
2023-02-05T13:54:19.253Z,100680.20
2023-02-05T13:57:14.178Z,100684.60
2023-02-05T13:59:55.389Z,100688.00
2023-02-05T14:02:43.277Z,100689.00
2023-02-05T14:05:31.532Z,100693.80
2023-02-05T14:08:20.912Z,100688.40
2023-02-05T14:11:07.184Z,100688.60
2023-02-05T14:13:43.676Z,100688.60
2023-02-05T14:16:41.150Z,100690.60
2023-02-05T14:19:26.878Z,100699.20
2023-02-05T14:22:37.579Z,100697.80
2023-02-05T14:26:11.901Z,100700.40
2023-02-05T14:28:55.007Z,100699.00
2023-02-05T14:31:55.541Z,100696.80
2023-02-05T14:35:00.993Z,100702.40
2023-02-05T14:37:44.187Z,100706.80
2023-02-05T14:40:35.834Z,100707.40
2023-02-05T14:43:28.646Z,100709.00
2023-02-05T14:46:22.292Z,100705.20
2023-02-05T14:49:00.550Z,100707.60
2023-02-05T14:51:42.252Z,100705.40
2023-02-05T14:54:25.284Z,100697.40
2023-02-05T14:57:26.332Z,100696.80
2023-02-05T15:00:06.780Z,100698.80
2023-02-05T15:03:33.525Z,100700.20
2023-02-05T15:06:18.578Z,100700.00
2023-02-05T15:09:06.633Z,100701.60
2023-02-05T15:12:20.802Z,100704.80
2023-02-05T15:15:17.301Z,100705.20
2023-02-05T15:18:03.407Z,100711.20
2023-02-05T15:20:43.124Z,100710.00
2023-02-05T15:23:36.635Z,100705.00
2023-02-05T15:26:25.406Z,100705.80
2023-02-05T15:29:10.521Z,100711.80
2023-02-05T15:31:54.803Z,100709.60
2023-02-05T15:34:47.041Z,100712.80
2023-02-05T15:37:31.248Z,100717.80
2023-02-05T15:40:20.160Z,100713.60
2023-02-05T15:43:01.360Z,100713.60
2023-02-05T15:45:44.974Z,100717.00
2023-02-05T15:48:28.401Z,100725.80
2023-02-05T15:51:22.145Z,100721.60
2023-02-05T15:54:04.057Z,100726.60
2023-02-05T15:56:44.750Z,100729.00
2023-02-05T15:59:28.136Z,100729.00
2023-02-05T16:02:20.461Z,100728.20
2023-02-05T16:05:04.018Z,100729.60
2023-02-05T16:07:52.127Z,100727.60
2023-02-05T16:10:34.430Z,100734.00
2023-02-05T16:13:19.341Z,100736.20
2023-02-05T16:16:05.105Z,100732.00
2023-02-05T16:18:48.977Z,100730.60
2023-02-05T16:21:31.053Z,100725.20
2023-02-05T16:24:17.215Z,100730.00
2023-02-05T16:27:02.354Z,100727.40
2023-02-05T16:29:48.630Z,100727.60
2023-02-05T16:32:35.302Z,100723.60
2023-02-05T16:35:28.144Z,100729.00
2023-02-05T16:38:09.203Z,100733.60
2023-02-05T16:40:50.333Z,100731.00
2023-02-05T16:43:39.276Z,100733.80
2023-02-05T16:46:34.824Z,100735.40
2023-02-05T16:49:34.521Z,100741.60
2023-02-05T16:52:35.533Z,100743.00
2023-02-05T16:55:46.734Z,100750.40
2023-02-05T16:58:29.576Z,100755.00
2023-02-05T17:01:07.608Z,100752.80
2023-02-05T17:03:51.410Z,100757.40
2023-02-05T17:06:36.641Z,100754.80
2023-02-05T17:09:33.067Z,100755.40
2023-02-05T17:12:41.333Z,100759.00
2023-02-05T17:15:41.900Z,100760.80
2023-02-05T17:18:35.094Z,100760.80
2023-02-05T17:21:31.615Z,100762.00
2023-02-05T17:24:09.728Z,100763.40
2023-02-05T17:26:48.542Z,100767.40
2023-02-05T17:29:26.163Z,100766.60
2023-02-05T17:32:05.365Z,100770.60
2023-02-05T17:34:42.119Z,100769.40
2023-02-05T17:37:21.976Z,100766.40
2023-02-05T17:39:58.580Z,100765.40
2023-02-05T17:42:35.228Z,100764.80
2023-02-05T17:45:20.751Z,100771.00
2023-02-05T17:47:57.891Z,100768.80
2023-02-05T17:50:36.111Z,100769.00
2023-02-05T17:53:15.037Z,100770.40
2023-02-05T17:55:52.322Z,100774.20
2023-02-05T17:58:28.774Z,100773.00
2023-02-05T18:01:06.072Z,100769.80
2023-02-05T18:03:43.169Z,100774.80
2023-02-05T18:06:21.424Z,100774.20
2023-02-05T18:08:58.033Z,100783.60
2023-02-05T18:11:34.895Z,100785.40
2023-02-05T18:14:12.786Z,100781.80
2023-02-05T18:16:49.636Z,100787.60
2023-02-05T18:19:26.354Z,100786.20
2023-02-05T18:22:03.443Z,100790.80
2023-02-05T18:24:40.726Z,100793.40
2023-02-05T18:27:17.473Z,100787.80
2023-02-05T18:29:54.217Z,100788.80
2023-02-05T18:32:30.662Z,100791.00
2023-02-05T18:35:09.312Z,100792.40
2023-02-05T18:37:46.135Z,100791.00
2023-02-05T18:40:22.982Z,100794.20
2023-02-05T18:43:00.916Z,100797.20
2023-02-05T18:45:40.976Z,100798.40
2023-02-05T18:48:17.295Z,100806.20
2023-02-05T18:50:53.798Z,100813.60
2023-02-05T18:53:30.273Z,100814.00
2023-02-05T18:56:10.933Z,100810.60
2023-02-05T18:58:51.776Z,100813.20
2023-02-05T19:01:29.377Z,100814.60
2023-02-05T19:04:11.495Z,100820.00
2023-02-05T19:06:52.440Z,100825.60
2023-02-05T19:09:30.779Z,100824.00
2023-02-05T19:12:07.860Z,100822.20
2023-02-05T19:14:44.876Z,100824.00
2023-02-05T19:17:21.808Z,100817.00
2023-02-05T19:19:58.714Z,100820.80
2023-02-05T19:22:35.664Z,100817.20
2023-02-05T19:25:13.573Z,100819.00
2023-02-05T19:27:50.229Z,100826.00
2023-02-05T19:30:27.082Z,100823.80
2023-02-05T19:33:03.604Z,100825.40
2023-02-05T19:35:40.425Z,100831.40
2023-02-05T19:38:17.087Z,100830.80
2023-02-05T19:40:53.609Z,100832.00
2023-02-05T19:43:30.281Z,100834.40
2023-02-05T19:46:10.448Z,100831.40
2023-02-05T19:50:47.036Z,100823.60
2023-02-05T19:53:25.119Z,100819.20
2023-02-05T19:56:07.494Z,100821.60
2023-02-05T19:58:47.684Z,100820.20
2023-02-05T20:01:28.257Z,100828.60
2023-02-05T20:04:12.393Z,100825.40
2023-02-05T20:06:49.912Z,100822.60
2023-02-05T20:09:27.281Z,100823.20
2023-02-05T20:12:04.551Z,100823.80
2023-02-05T20:14:41.271Z,100830.20
2023-02-05T20:17:18.143Z,100828.80
2023-02-05T20:20:02.527Z,100832.60
2023-02-05T20:22:42.581Z,100837.40
2023-02-05T20:25:19.466Z,100836.00
2023-02-05T20:27:56.429Z,100832.80
2023-02-05T20:31:17.010Z,100840.00
2023-02-05T20:33:53.770Z,100838.80
2023-02-05T20:36:30.813Z,100841.00
2023-02-05T20:39:13.244Z,100846.20
2023-02-05T20:41:52.305Z,100846.00
2023-02-05T20:44:30.862Z,100853.20
2023-02-05T20:47:11.068Z,100856.20
2023-02-05T20:49:48.061Z,100856.00
2023-02-05T20:52:24.661Z,100860.40
2023-02-05T20:55:01.150Z,100866.00
2023-02-05T20:57:37.708Z,100873.40
2023-02-05T21:00:17.525Z,100875.20
2023-02-05T21:02:53.823Z,100874.60
2023-02-05T21:05:30.387Z,100875.80
2023-02-05T21:08:07.167Z,100875.80
2023-02-05T21:10:43.732Z,100882.80
2023-02-05T21:13:21.327Z,100878.20
2023-02-05T21:16:02.557Z,100884.00
2023-02-05T21:18:40.436Z,100884.60
2023-02-05T21:21:20.228Z,100883.80
2023-02-05T21:24:01.034Z,100890.00
2023-02-05T21:26:40.547Z,100891.80
2023-02-05T21:29:20.642Z,100888.80
2023-02-05T21:31:57.841Z,100897.00
2023-02-05T21:34:34.458Z,100897.80
2023-02-05T21:37:11.233Z,100903.40
2023-02-05T21:39:48.329Z,100908.80
2023-02-05T21:42:24.891Z,100908.60
2023-02-05T21:45:01.356Z,100910.20
2023-02-05T21:47:37.866Z,100911.80
2023-02-05T21:50:15.139Z,100913.60
2023-02-05T21:52:52.100Z,100916.60
2023-02-05T21:55:29.395Z,100926.00
2023-02-05T21:58:06.307Z,100935.00
2023-02-05T22:00:43.480Z,100936.00
2023-02-05T22:03:20.288Z,100935.80
2023-02-05T22:05:59.264Z,100930.60
2023-02-05T22:08:41.047Z,100939.60
2023-02-05T22:11:18.846Z,100941.60
2023-02-05T22:13:58.813Z,100946.40
2023-02-05T22:16:40.299Z,100953.60
2023-02-05T22:19:17.247Z,100957.60
2023-02-05T22:21:54.494Z,100951.80
2023-02-05T22:24:31.513Z,100955.60
2023-02-05T22:27:08.703Z,100959.00
2023-02-05T22:29:45.682Z,100964.00
2023-02-05T22:32:23.070Z,100961.20
2023-02-05T22:35:01.111Z,100963.00
2023-02-05T22:37:38.235Z,100958.00
2023-02-05T22:40:16.902Z,100959.40
2023-02-05T22:42:53.752Z,100955.60
2023-02-05T22:45:33.418Z,100961.40
2023-02-05T22:48:11.636Z,100959.00
2023-02-05T22:50:49.179Z,100960.80
2023-02-05T22:53:25.864Z,100956.20
2023-02-05T22:56:06.240Z,100951.40
2023-02-05T22:58:46.598Z,100954.60
2023-02-05T23:01:26.906Z,100953.20
2023-02-05T23:04:06.048Z,100946.60
2023-02-05T23:06:45.513Z,100951.80
2023-02-05T23:09:22.990Z,100951.00
2023-02-05T23:12:03.510Z,100954.60
2023-02-05T23:14:40.641Z,100952.60
2023-02-05T23:17:16.985Z,100958.40
2023-02-05T23:19:56.535Z,100967.20
2023-02-05T23:22:33.057Z,100965.60
2023-02-05T23:25:11.074Z,100963.20
2023-02-05T23:27:47.342Z,100965.80
2023-02-05T23:30:24.431Z,100964.00
2023-02-05T23:33:00.823Z,100969.00
2023-02-05T23:35:37.534Z,100964.60
2023-02-05T23:38:14.071Z,100968.00
2023-02-05T23:40:51.602Z,100971.80
2023-02-05T23:43:29.096Z,100970.80
2023-02-05T23:46:07.726Z,100975.60
2023-02-05T23:48:44.928Z,100974.40
2023-02-05T23:51:21.637Z,100969.60
2023-02-05T23:53:58.317Z,100977.60
2023-02-05T23:56:35.284Z,100985.40
2023-02-05T23:59:14.362Z,100986.40
